Time;durP1;ratioP1;P1;durP2;ratioP2;P2;SDS_P1;SDS_P2;PMS_P1;PMS_P2;Temp;Humidity;BMP_temperature;BMP_pressure;BME280_temperature;BME280_humidity;BME280_pressure;Samples;Min_cycle;Max_cycle;Signal;HPM_P1;HPM_P2
2021/09/29 10:42:58;;;;;;;11.60;9.17;;;12.50;99.90;;;;;;5073946;27;20358;-68
2021/09/29 10:45:38;;;;;;;14.83;12.03;;;12.40;99.90;;;;;;5061771;28;20559;-67
2021/09/29 11:04:59;;;;;;;7.77;6.70;;;12.70;99.90;;;;;;5084330;28;20554;-70
2021/09/29 11:29:52;;;;;;;6.83;3.97;;;13.10;99.90;;;;;;5084331;28;20055;-71
2021/09/29 11:32:37;;;;;;;7.00;6.40;;;13.20;99.90;;;;;;5064721;28;20512;-71
2021/09/29 12:08:16;;;;;;;3.17;2.03;;;13.20;99.90;;;;;;5069062;28;20052;-67
2021/09/29 12:11:03;;;;;;;2.87;1.83;;;13.20;99.90;;;;;;5070382;28;20120;-67
2021/09/29 12:13:59;;;;;;;2.20;2.00;;;13.20;99.90;;;;;;5060550;28;20045;-66
2021/09/29 12:16:33;;;;;;;3.37;1.80;;;13.20;99.90;;;;;;5050051;28;20128;-66
2021/09/29 12:19:10;;;;;;;5.13;4.73;;;13.20;99.90;;;;;;5050029;28;20080;-66
2021/09/29 12:21:45;;;;;;;5.03;1.30;;;13.20;99.90;;;;;;5049205;28;20449;-62
2021/09/29 12:24:13;;;;;;;2.20;1.37;;;13.20;99.90;;;;;;5050580;28;20965;-68
2021/09/29 12:26:44;;;;;;;2.67;1.30;;;13.20;99.90;;;;;;5049662;28;20557;-68
2021/09/29 12:29:18;;;;;;;2.40;1.20;;;13.20;99.90;;;;;;5028411;28;20044;-66
2021/09/29 12:34:25;;;;;;;2.83;1.40;;;13.10;99.90;;;;;;5049504;28;20060;-66
2021/09/29 12:36:51;;;;;;;1.55;0.55;;;13.00;99.90;;;;;;5049850;28;20045;-67
2021/09/29 12:39:19;;;;;;;1.80;1.00;;;13.00;99.90;;;;;;5049450;28;20059;-66
2021/09/29 12:41:53;;;;;;;0.97;0.37;;;12.90;99.90;;;;;;5048376;28;20176;-65
2021/09/29 12:44:19;;;;;;;1.03;0.50;;;12.80;99.90;;;;;;5032651;28;20124;-65
2021/09/29 12:46:50;;;;;;;1.03;0.60;;;12.60;99.90;;;;;;5049437;28;20179;-65
2021/09/29 12:49:21;;;;;;;2.35;1.08;;;12.60;99.90;;;;;;5031457;28;20052;-67
2021/09/29 12:51:59;;;;;;;3.50;0.60;;;12.50;99.90;;;;;;5049232;28;20049;-66
2021/09/29 12:54:26;;;;;;;26.63;25.23;;;12.60;99.90;;;;;;5050111;28;20170;-64
2021/09/29 12:56:51;;;;;;;0.80;0.80;;;12.50;99.90;;;;;;5048590;28;20049;-63
2021/09/29 12:59:17;;;;;;;4.47;2.70;;;12.50;99.90;;;;;;5031559;28;20049;-64
2021/09/29 13:01:42;;;;;;;4.93;4.53;;;12.50;99.90;;;;;;5049322;28;20049;-64
2021/09/29 13:04:08;;;;;;;2.53;1.80;;;12.40;99.90;;;;;;5030528;28;20052;-64
2021/09/29 13:06:34;;;;;;;3.17;0.60;;;12.40;99.90;;;;;;5049183;28;20489;-64
2021/09/29 13:08:59;;;;;;;5.13;1.77;;;12.40;99.90;;;;;;5048626;28;20048;-64
2021/09/29 13:11:25;;;;;;;2.60;0.93;;;12.40;99.90;;;;;;5030096;28;20056;-64
2021/09/29 13:13:50;;;;;;;3.10;0.90;;;12.40;99.90;;;;;;5048403;28;20051;-64
2021/09/29 13:16:16;;;;;;;1.50;1.00;;;12.40;99.90;;;;;;5048081;28;20044;-65
2021/09/29 18:30:12;;;;;;;7.67;4.87;;;10.70;99.90;;;;;;5119110;27;20394;-71
2021/09/29 18:32:39;;;;;;;6.23;2.30;;;10.60;99.90;;;;;;5123978;27;20741;-70
2021/09/29 18:35:08;;;;;;;10.90;5.60;;;10.70;99.90;;;;;;5124708;27;20159;-70
2021/09/29 18:37:34;;;;;;;5.93;2.77;;;10.70;99.90;;;;;;5124852;27;20045;-69
2021/09/29 18:40:00;;;;;;;6.93;1.83;;;10.70;99.90;;;;;;5123238;28;20050;-71
2021/09/29 18:42:25;;;;;;;9.43;5.07;;;10.70;99.90;;;;;;5125393;28;20092;-71
2021/09/29 18:44:53;;;;;;;10.33;3.53;;;10.80;99.90;;;;;;5124564;28;20418;-68
2021/09/29 18:47:19;;;;;;;7.47;1.83;;;10.80;99.90;;;;;;5125019;27;20160;-71
2021/09/29 18:49:48;;;;;;;6.37;2.03;;;10.90;99.90;;;;;;5123879;27;20511;-71
2021/09/29 18:52:17;;;;;;;4.70;2.10;;;10.90;99.90;;;;;;5125857;27;20495;-74
2021/09/29 18:54:49;;;;;;;4.60;1.47;;;10.90;99.90;;;;;;5124402;27;20047;-75
2021/09/29 18:57:32;;;;;;;7.07;1.67;;;11.00;99.90;;;;;;5125592;27;20047;-72
2021/09/29 19:08:13;;;;;;;5.23;2.33;;;11.00;99.90;;;;;;5123886;28;20077;-72
2021/09/29 19:10:39;;;;;;;7.20;3.80;;;11.10;99.90;;;;;;5124278;27;20472;-72
2021/09/29 19:13:05;;;;;;;5.30;1.70;;;11.10;99.90;;;;;;5123169;28;20130;-72
2021/09/29 19:15:32;;;;;;;7.87;1.90;;;11.10;99.90;;;;;;5124504;27;20074;-67
2021/09/29 19:17:58;;;;;;;5.57;2.67;;;11.10;99.90;;;;;;5124318;27;20131;-67
